Home   Weather   Astana   Past weeks
Flag for Kazakhstan

Past Weather in Astana, Kazakhstan — Yesterday and Last 2 Weeks

Currently: 9 °F. Ice fog. (Weather station: Astana, Kazakhstan). See more current weather

Past Weather in Astana — Graph

°F

Astana Temperature Yesterday

Maximum temperature yesterday: 10 °F (at 4:30 pm)
Minimum temperature yesterday: -15 °F (at 5:00 am)
Average temperature yesterday: -5 °F

High & Low Weather Summary for the Past Weeks

 TemperatureHumidityPressure
High16 °F (Jan 24, 5:00 am)92% (Jan 24, 7:00 am)30.86 "Hg (Jan 24, 7:00 am)
Low-17 °F (Jan 30, 8:30 am)47% (Jan 19, 3:00 pm)30.12 "Hg (Jan 29, 2:30 am)
Average1 °F76%30.50 "Hg
* Reported Jan 17 2:00 pm — Feb 1 2:30 pm, Astana. Weather by CustomWeather, © 2023

Note: Actual official high and low records may vary slightly from our data, if they occured in-between our weather recording intervals... More about our weather records

Astana Weather History for the Previous 24 Hours

Scroll right to see more
 ConditionsComfort  
Time TempWeatherWind HumidityBarometerVisibility
2:30 pm
Wed, Feb 1
9 °FClear.1 mph66%30.27 "Hg4 mi
2:00 pm5 °FIce fog.3 mph60%30.27 "Hg3 mi
1:30 pm1 °FClear.1 mph71%30.27 "Hg4 mi
1:00 pm0 °FIce fog.1 mph71%30.30 "Hg3 mi
12:30 pm-2 °FIce fog.3 mph65%30.30 "Hg3 mi
12:00 pm-6 °FIce fog.3 mph77%30.30 "Hg3 mi
11:46 am-6 °FIce fog.3 mph70%30.30 "Hg3 mi
11:30 am-8 °FIce fog.3 mph70%30.30 "Hg2 mi
11:00 am-11 °FIce fog.1 mph76%30.30 "Hg2 mi
10:30 am-13 °FIce fog.1 mph76%30.30 "Hg3 mi
10:07 am-13 °FLight fog.1 mph69%30.30 "Hg1 mi
9:40 am-15 °FIce fog.1 mph69%30.30 "Hg1 mi
9:20 am-17 °FIce fog.3 mph76%30.30 "Hg1 mi
9:03 am-15 °FIce fog.3 mph76%30.30 "Hg1 mi
8:30 am-17 °FIce fog.3 mph76%30.27 "Hg2 mi
8:00 am-15 °FIce fog.3 mph69%30.27 "Hg2 mi
7:38 am-15 °FIce fog.3 mph76%30.27 "Hg1 mi
7:00 am-17 °FIce fog.3 mph76%30.27 "Hg2 mi
5:30 am-13 °FIce fog.3 mph69%30.27 "Hg2 mi
5:00 am-13 °FIce fog.1 mph76%30.27 "Hg2 mi
4:30 am-13 °FClear.1 mph76%30.27 "Hg4 mi
4:00 am-15 °FClear.3 mph76%30.27 "Hg4 mi
3:30 am-9 °FClear.No wind77%30.27 "Hg6 mi
2:30 am-11 °FClear.1 mph84%30.24 "Hg6 mi
2:00 am-9 °FClear.1 mph77%30.27 "Hg6 mi
1:30 am-11 °FIce fog.3 mph76%30.27 "Hg3 mi
1:00 am-8 °FIce fog.1 mph77%30.27 "Hg2 mi
12:46 am-8 °FIce fog.1 mph84%30.27 "Hg2 mi
12:30 am-8 °FIce fog.1 mph77%30.27 "Hg3 mi
12:00 am-8 °FClear.1 mph77%30.24 "Hg6 mi
11:30 pm
Tue, Jan 31
-9 °FClear.No wind84%30.24 "Hg10 mi
11:00 pm-8 °FClear.1 mph77%30.24 "Hg10 mi
10:00 pm-8 °FClear.3 mph84%30.24 "Hg10 mi
9:30 pm-9 °FPassing clouds.3 mph84%30.24 "HgN/A
9:00 pm-4 °FClear.No wind84%30.24 "Hg10 mi
8:00 pm0 °FClear.1 mph71%30.24 "Hg10 mi
7:30 pm1 °FClear.1 mph71%30.24 "Hg10 mi
7:00 pm3 °FSunny.1 mph72%30.24 "Hg10 mi
6:00 pm5 °FSunny.3 mph66%30.24 "Hg10 mi
5:30 pm7 °FSunny.6 mph66%30.21 "Hg10 mi
5:00 pm9 °FSunny.3 mph61%30.21 "Hg10 mi
4:30 pm10 °FSunny.3 mph56%30.21 "Hg10 mi
4:00 pm9 °FSunny.3 mph61%30.21 "Hg10 mi
3:30 pm9 °FSunny.1 mph61%30.21 "Hg10 mi
3:00 pm9 °FSunny.3 mph61%30.21 "Hg10 mi
Weather by CustomWeather, © 2023

See weather overview